Tiempo atmosférico en la estación meteorológica de Izaña, Santa Cruz de Tenerife (2371 m.)



Fecha
DESCASC
Temp. máxima en grados centígrados (hora)
DESCASC
Temp. mínima en grados centígrados (hora)
DESCASC
Temp. media en grados centígrados
DESCASC
Racha de viento máxima en m/sg (hora)
DESCASC
Velocidad máxima media en intervalos de 10 minutos(hora)
DESCASC
Precipitaciones diarias en mm
DESCASC
Precipitaciones de 00:00 a 06:00 en mm
DESCASC
Precipitaciones de 06:00 a 12:00 en mm
DESCASC
Precipitaciones de 12:00 a 18:00 en mm
DESCASC
Precipitaciones de 18:00 a 24:00 en mm
DESCASC
16-01-2020 12 (14:20) 3.3 (02:30) 7.6 7.78 (23:40) 7.22 (23:40) 0 0 0 0 0
15-01-2020 9.8 (13:30) -0.4 (01:30) 4.7 12.22 (11:00) 9.17 (10:20) 0 0 0 0 0
14-01-2020 5.8 (16:30) -1.7 (05:40) 2.1 14.72 (02:10) 12.5 (02:10) 0 0 0 0 0
13-01-2020 8.8 (16:20) 0.3 (23:50) 4.6 12.22 (23:50) 10.83 (23:59) 0 0 0 0 0
12-01-2020 11.1 (13:30) 3.5 (21:50) 7.3 13.89 (10:40) 11.39 (10:20) 0 0 0 0 0
11-01-2020 10.3 (13:10) 3.9 (00:00) 7.1 12.78 (06:30) 10.83 (06:30) 0 0 0 0 0
10-01-2020 9.2 (13:40) 3.7 (00:00) 6.4 13.89 (08:40) 10.28 (08:40) 0 0 0 0 0
09-01-2020 8.1 (12:10) 1.7 (00:00) 4.9 15.28 (23:10) 11.11 (06:40) 0 0 0 0 0
08-01-2020 3.6 (15:00) -3.1 (-00:0) 0.3 13.33 (07:10) 9.44 (07:10) 0 0 0 0 0
07-01-2020 1.7 (16:40) -3.4 (-00:0) -0.9 21.11 (01:10) 16.94 (01:20) 0.4 0 0.4 0 0
06-01-2020 5.9 (13:10) -1.3 (-00:0) 2.3 20.28 (19:20) 15.56 (21:10) 0 0 0 0 0
05-01-2020 8 (14:10) 1.8 (00:00) 4.9 15.28 (19:10) 13.89 (19:20) 0 0 0 0 0
04-01-2020 10.1 (13:10) 3.2 (00:00) 6.7 15.83 (01:50) 13.33 (01:10) 0 0 0 0 0
03-01-2020 8.6 (14:40) 2.2 (00:00) 5.4 15.28 (23:30) 13.61 (23:30) 0 0 0 0 0
02-01-2020 9.6 (13:00) 2.3 (00:00) 6 13.06 (11:30) 10.83 (00:10) 0 0 0 0 0
01-01-2020 11.1 (15:00) 3.9 (00:00) 7.5 13.33 (23:10) 11.67 (22:20) 0 0 0 0 0
31-12-2019 12.3 (12:30) 5 (00:00) 8.7 11.94 (00:10) 11.39 (01:10) 0 0 0 0 0
30-12-2019 11.3 (13:20) 5.4 (00:00) 8.4 18.06 (10:10) 14.17 (10:40) 0 0 0 0 0
29-12-2019 14.8 (14:20) 6.6 (00:00) 10.7 11.39 (10:10) 10 (23:50) 0 0 0 0 0
28-12-2019 13.8 (14:20) 6.8 (00:00) 10.3 9.72 (01:30) 7.78 (00:30) 0 0 0 0 0
27-12-2019 11.4 (14:30) 4.4 (00:00) 7.9 15.56 (10:10) 13.33 (08:50) 0 0 0 0 0
26-12-2019 10.8 (13:20) 3.4 (00:00) 7.1 13.61 (00:10) 12.22 (01:50) 0 0 0 0 0
25-12-2019 12.4 (12:10) 5 (00:00) 8.7 15.83 (01:50) 14.17 (02:40) 0 0 0 0 0
24-12-2019 13.5 (14:30) 5 (04:30) 9.3 16.94 (02:40) 15 (02:20) 0 0 0 0 0
23-12-2019 13.9 (15:30) 6.2 (00:00) 10 17.22 (20:40) 14.72 (20:50) 0 0 0 0 0
22-12-2019 14.1 (11:20) 4.5 (21:30) 9.3 18.33 (22:10) 14.44 (22:10) 0 0 0 0 0
21-12-2019 14.9 (14:00) 7.2 (07:20) 11 12.78 (00:40) 11.67 (00:10) 0 0 0 0 0

Gráficas

Temp. máximas Temp. mínimas Temp. medias Precipitaciones Rachas de viento máximas Velocidades máximas media en intervalos de 10 minutos

Datos horarios

Fecha y hora oficial Temperatura (ºC) Velocidad del viento (km/h) Dirección del viento Racha (km/h) Dirección de racha Precipitación (mm) Presión (hPa) Tendencia (hPa) Humedad (%)
2020-01-19 23:00:00 5.1 25 Norte 43 Nordeste 0 772.1 -0.6 33
2020-01-19 22:00:00 5.9 27 Norte 41 Nordeste 0 772.5 -0.3 28
2020-01-19 21:00:00 6.1 29 Nordeste 37 Nordeste 0 772.6 -0.3 30
2020-01-19 20:00:00 6.2 17 Nordeste 38 Nordeste 0 772.7 -0.6 38
2020-01-19 19:00:00 5.6 23 Este 39 Este 0 772.8 -0.4 45
2020-01-19 18:00:00 7.7 28 Este 39 Este 0 772.9 -0.7 17
2020-01-19 17:00:00 8.8 22 Este 37 Este 0 773.3 -1 17
2020-01-19 16:00:00 9.2 26 Este 39 Este 0 773.2 -1.9 26
2020-01-19 15:00:00 10.1 23 Sudeste 40 Sudeste 0 773.6 -2.2 23
2020-01-19 14:00:00 10 21 Sudeste 31 Este 0 774.3 -1.9 19
2020-01-19 13:00:00 9.8 23 Sudeste 34 Sudeste 0 775.1 -1 9
2020-01-19 12:00:00 10.5 22 Sudeste 35 Sudeste 0 775.8 0 11
2020-01-19 11:00:00 11 25 Sudeste 37 Sudeste 0 776.2 0.4 6
2020-01-19 10:00:00 9.8 22 Sudeste 34 Sudeste 0 776.1 0.6 7
2020-01-19 09:00:00 9 24 Sudeste 31 Sudeste 0 775.8 0.6 4
2020-01-19 08:00:00 7.5 19 Sudeste 24 Sudeste 0 775.8 0.6 4
2020-01-19 07:00:00 7.3 15 Sudeste 18 Sur 0 775.5 -0.1 4
2020-01-19 06:00:00 7.4 16 Sur 25 Sudeste 0 775.2 -0.8 3
2020-01-19 05:00:00 7.4 24 Sudeste 28 Sur 0 775.2 -1.2 4
2020-01-19 04:00:00 7.9 26 Sur 29 Sudeste 0 775.6 -1.2 3
2020-01-19 03:00:00 8.1 21 Sur 32 Sur 0 776 -1.1 3
2020-01-19 02:00:00 7.9 26 Sur 35 Sur 0 776.4 -0.7 3
2020-01-19 01:00:00 6.7 27 Sur 35 Sur 0 776.8 -0.3 2
2020-01-19 00:00:00 6.9 27 Sur 35 Sur 0 777.1 0.2 2
2020-01-18 23:00:00 6.7 32 Sur 39 Sur 0 777.1 0.4 4
2020-01-18 22:00:00 5.9 32 Sur 37 Sur 0 777.1 0.9 4
2020-01-18 21:00:00 6.5 32 Sur 39 Sur 0 776.9 0.7 6
2020-01-18 20:00:00 6.7 32 Sur 40 Sur 0 776.7 0.6 6
2020-01-18 19:00:00 6.7 37 Sur 40 Sur 0 776.2 0 5
2020-01-18 18:00:00 8 30 Sur 41 Sur 0 776.2 0 5
2020-01-18 17:00:00 9.6 35 Sur 44 Sur 0 776.1 -0.5 5
2020-01-18 16:00:00 10.2 36 Sudeste 40 Sudeste 0 776.2 -1.1 7
2020-01-18 15:00:00 11 34 Sudeste 41 Sudeste 0 776.2 -1.7 6
2020-01-18 14:00:00 12.3 33 Sudeste 44 Sur 0 776.6 -1.7 12
2020-01-18 13:00:00 11.6 33 Sur 45 Sur 0 777.3 -0.7 4
2020-01-18 12:00:00 11.1 34 Sur 44 Sur 0 777.9 0.4 3
2020-01-18 11:00:00 10.6 31 Sur 43 Sur 0 778.3 1.2 4
2020-01-18 10:00:00 10.2 36 Sur 44 Sur 0 778 1.6 5
2020-01-18 09:00:00 9 35 Sur 42 Sur 0 777.5 1.3 3
2020-01-18 08:00:00 6.6 38 Sur 42 Sur 0 777.1 0.8 4
2020-01-18 07:00:00 6.3 36 Sur 38 Sur 0 776.4 0 6
2020-01-18 06:00:00 6.5 28 Sudeste 33 Sur 0 776.2 -0.3 4
2020-01-18 05:00:00 6.3 31 Sur 35 Sur 0 776.3 -0.5 7
2020-01-18 04:00:00 6.1 30 Sur 37 Sudeste 0 776.4 -0.7 7
2020-01-18 03:00:00 5.9 33 Sur 40 Sudeste 0 776.5 -0.7 7
2020-01-18 02:00:00 5.6 32 Sur 36 Sudeste 0 776.8 -0.3 10
2020-01-18 01:00:00 5.3 34 Sudeste 46 Sur 0 777.1 0.4 11
2020-01-18 00:00:00 5.5 44 Sur 53 Sur 0 777.2 0.7 12
2020-01-17 23:00:00 5.3 41 Sur 48 Sur 0 777.1 0.8 12
2020-01-17 22:00:00 6.1 44 Sudeste 49 Sur 0 776.7 0.8 10
2020-01-17 21:00:00 6.2 44 Sudeste 46 Sudeste 0 776.5 0.8 7
2020-01-17 20:00:00 5.9 38 Sudeste 40 Sudeste 0 776.3 0.9 7
2020-01-17 19:00:00 5.8 35 Sudeste 37 Sudeste 0 775.9 0.5 10
2020-01-17 18:00:00 7.3 26 Sudeste 30 Sur 0 775.7 0.1 4
2020-01-17 17:00:00 8.9 22 Sudeste 24 Sudeste 0 775.4 -0.4 5
2020-01-17 16:00:00 10.1 17 Sudeste 22 Sudeste 0 775.4 -1.2 4
2020-01-17 15:00:00 11.2 13 Sudeste 25 Sudeste 0 775.6 -1.4 11
2020-01-17 14:00:00 11.2 17 Sudeste 29 Sur 0 775.8 -1.2 15
2020-01-17 13:00:00 10.6 16 Sudeste 32 Sur 0 776.6 0.3 17
2020-01-17 12:00:00 10.4 26 Sur 35 Sur 0 777 1 12
2020-01-17 11:00:00 9.4 23 Sur 34 Sur 0 777 1.3 13
2020-01-17 10:00:00 8.5 28 Sur 32 Sur 0 776.3 1 13
2020-01-17 09:00:00 6.7 26 Sur 30 Sur 0 776 1.1 16
2020-01-17 08:00:00 4.5 22 Sur 26 Sur 0 775.7 0.8 18
2020-01-17 07:00:00 5.3 21 Sur 26 Sur 0 775.3 0.3 14
2020-01-17 06:00:00 5.1 23 Sur 28 Sur 0 774.9 -0.4 10
2020-01-17 05:00:00 5.7 23 Sur 30 Sur 0 774.9 -0.4 7
2020-01-17 04:00:00 6.2 25 Sur 29 Sur 0 775 -0.4 6
2020-01-17 03:00:00 6.7 18 Sur 24 Sur 0 775.3 -0.4 7
2020-01-17 02:00:00 6.4 19 Sur 29 Sur 0 775.3 -0.2 6
2020-01-17 01:00:00 6.4 24 Sur 28 Sur 0 775.4 -0.1 6
2020-01-17 00:00:00 6.4 23 Sur 28 Sur 0 775.7 0.4 3
2020-01-16 23:00:00 6.9 21 Sudeste 26 Sudeste 0 775.5 0.7 6
2020-01-16 22:00:00 6.6 15 Sudeste 18 Sudeste 0 775.5 1.4 4
2020-01-16 21:00:00 6.1 13 Este 15 Este 0 775.3 1.7 6
2020-01-16 20:00:00 7.1 10 Nordeste 18 Norte 0 774.8 1.5 5
2020-01-16 19:00:00 6.4 15 Norte 18 Norte 0 774.1 0.9 5
2020-01-16 18:00:00 8.3 13 Norte 16 Norte 0 773.6 0.5 13
2020-01-16 17:00:00 9.8 9 Noroeste 14 Noroeste 0 773.3 0 36
2020-01-16 16:00:00 11.2 5 Noroeste 13 Norte 0 773.2 -0.6 12
2020-01-16 15:00:00 10.3 8 Noroeste 17 Norte 0 773.1 -1 47
2020-01-16 14:00:00 11.7 6 Sudeste 16 Sur 0 773.3 -0.8 40
2020-01-16 13:00:00 10.6 5 Norte 15 Norte 0 773.8 0.2 30
2020-01-16 12:00:00 10.1 5 Norte 13 Sur 0 774.1 1.2 10
2020-01-16 11:00:00 9.8 4 Noroeste 8 Noroeste 0 774.1 1.8 6
2020-01-16 10:00:00 8 5 Norte 9 Noroeste 0 773.6 1.9 8
2020-01-16 09:00:00 7 3 Norte 9 Sur 0 772.9 1.7 9
2020-01-16 08:00:00 5.9 3 Este 10 Noroeste 0 772.3 1.3 7
2020-01-16 07:00:00 6.2 9 Sudoeste 11 Sudoeste 0 771.7 0.7 7
2020-01-16 06:00:00 5.8 5 Oeste 7 Oeste 0 771.2 0.4 6
2020-01-16 05:00:00 5.2 4 Sudoeste 8 Sur 0 771 -0.1 7
2020-01-16 04:00:00 4 7 Noroeste 17 Oeste 0 771 -0.4 12
2020-01-16 03:00:00 3.8 12 Oeste 18 Noroeste 0 770.8 -0.7 14
2020-01-16 02:00:00 4.5 11 Sudoeste 22 Sudoeste 0 771.1 -0.2 11
2020-01-16 01:00:00 3.9 13 Sudoeste 18 Sudoeste 0 771.4 0.4 18
2020-01-16 00:00:00 3.7 12 Sudoeste 17 Sudoeste 0 771.5 0.7 17
2020-01-15 23:00:00 3.2 14 Sudoeste 19 Sudoeste 0 771.3 0.9 13
2020-01-15 22:00:00 4 14 Sudoeste 19 Sudoeste 0 771 1.1 13
2020-01-15 21:00:00 3.5 16 Sudoeste 18 Sudoeste 0 770.8 1.3 18
2020-01-15 20:00:00 4 6 Sudeste 13 Sudoeste 0 770.4 1 28
2020-01-15 19:00:00 4.3 9 Sudoeste 13 Sudoeste 0 769.9 0.7 36
2020-01-15 18:00:00 6.2 4 Sudoeste 11 Sur 0 769.5 0.3 33
2020-01-15 17:00:00 6.8 7 Norte 15 Noroeste 0 769.4 0.2 31
2020-01-15 16:00:00 6.4 8 Norte 23 Sur 0 769.2 -0.6 65
2020-01-15 15:00:00 7.4 5 Sudeste 19 Sur 0 769.2 -1.3 43
2020-01-15 14:00:00 6.4 11 Noroeste 27 Sudoeste 0 769.2 -1.3 56
2020-01-15 13:00:00 8.9 12 Oeste 37 Sudoeste 0 769.8 -0.3 25
2020-01-15 12:00:00 7.9 26 Sudoeste 38 Sudoeste 0 770.5 1.1 19
2020-01-15 11:00:00 7.3 30 Sudoeste 44 Sudoeste 0 770.5 1.5 11
2020-01-15 10:00:00 5.9 23 Sudoeste 32 Sudoeste 0 770.1 1.6 10
2020-01-15 09:00:00 3.2 18 Sudoeste 26 Sudoeste 0 769.4 1.4 8
2020-01-15 08:00:00 0.9 25 Sudoeste 28 Sudoeste 0 769 0.9 10
2020-01-15 07:00:00 1.6 22 Sudoeste 30 Sudoeste 0 768.5 0.4 15
2020-01-15 06:00:00 0.6 24 Sudoeste 29 Sudoeste 0 768 -0.4 11
2020-01-15 05:00:00 2.8 20 Sudoeste 27 Sudoeste 0 768.1 -0.4 8
2020-01-15 04:00:00 1.5 24 Sudoeste 29 Sudoeste 0 768.1 -0.7 14
2020-01-15 03:00:00 2.5 19 Sudoeste 23 Sudoeste 0 768.4 -0.6 10
2020-01-15 02:00:00 0.3 12 Sudoeste 28 Sudoeste 0 768.5 -0.6 26
2020-01-15 01:00:00 0 14 Sudoeste 22 Sur 0 768.8 0 31
2020-01-15 00:00:00 0.3 12 Sudeste 17 Sudeste 0 769 0.4 37
2020-01-14 23:00:00 1 8 Sur 14 Sur 0 769.1 1 33
2020-01-14 22:00:00 2 12 Sudeste 15 Sudeste 0 768.8 0.9 35
2020-01-14 21:00:00 2.6 8 Noroeste 20 Noroeste 0 768.6 0.7 42
2020-01-14 20:00:00 1.7 15 Noroeste 22 Noroeste 0 768.1 0.4 26
2020-01-14 19:00:00 2.3 8 Sudoeste 11 Sudoeste 0 767.9 0.3 63
2020-01-14 18:00:00 3.2 5 Noroeste 21 Noroeste 0 767.9 0.3 80
2020-01-14 17:00:00 4.5 6 Norte 13 Sudoeste 0 767.7 -0.1 72
2020-01-14 16:00:00 5.1 8 Noroeste 18 Noroeste 0 767.6 -0.7 69
2020-01-14 15:00:00 4.4 11 Norte 23 Noroeste 0 767.6 -1.2 73
2020-01-14 14:00:00 5.5 12 Oeste 30 Sudoeste 0 767.8 -1.2 63
2020-01-14 13:00:00 4.8 22 Sudoeste 36 Sudoeste 0 768.3 -0.5 71
2020-01-14 12:00:00 4.4 26 Sudoeste 37 Sudoeste 0 768.8 0.4 74
2020-01-14 11:00:00 4.2 28 Sudoeste 37 Sudoeste 0 769 1.1 54
2020-01-14 10:00:00 5 19 Sudoeste 30 Sudoeste 0 768.8 1 29
2020-01-14 09:00:00 2.9 26 Sudoeste 43 Sudoeste 0 768.4 1.1 22
2020-01-14 08:00:00 0.6 39 Sudoeste 44 Sudoeste 0 767.9 0.7 35
2020-01-14 07:00:00 1.6 30 Sudoeste 36 Sudoeste 0 767.8 0.4 25
2020-01-14 06:00:00 -1.3 27 Sudoeste 36 Sudoeste 0 767.3 -0.5 61
2020-01-14 05:00:00 -1.5 28 Sudoeste 47 Sudoeste 0 767.2 -0.9 61
2020-01-14 04:00:00 -1.4 42 Sudoeste 50 Sudoeste 0 767.4 -1.1 57
2020-01-14 03:00:00 -1.3 42 Sudoeste 53 Sudoeste 0 767.8 -1.1 58
2020-01-14 02:00:00 -1.2 43 Sudoeste 50 Sudoeste 0 768.1 -1.3 56
2020-01-14 01:00:00 -0.9 41 Sudoeste 45 Sudoeste 0 768.5 -1.3 69
2020-01-14 00:00:00 0.4 39 Sudoeste 44 Sudoeste 0 768.9 -0.6 39
2020-01-13 23:00:00 0.5 33 Sudoeste 35 Sudoeste 0 769.4 0 25
2020-01-13 22:00:00 0.5 22 Sudoeste 24 Sudoeste 0 769.8 0.7 26
2020-01-13 21:00:00 1.3 17 Sudoeste 21 Sudoeste 0 769.5 0.6 22
2020-01-13 20:00:00 1.7 12 Sudoeste 19 Sur 0 769.4 0.5 36
2020-01-13 19:00:00 2 13 Sur 18 Sur 0 769.1 0.1 63
2020-01-13 18:00:00 4.7 13 Sudoeste 18 Sudoeste 0 768.9 -0.2 32
2020-01-13 17:00:00 7.1 3 Norte 11 Noroeste 0 768.9 -0.8 52
2020-01-13 16:00:00 8.3 3 Noroeste 20 Noroeste 0 769 -1.5 53
2020-01-13 15:00:00 6.2 12 Noroeste 23 Sudoeste 0 769.1 -2.2 55
2020-01-13 14:00:00 6.7 13 Sur 26 Sudoeste 0 769.7 -1.8 64
2020-01-13 13:00:00 7.6 13 Oeste 23 Sudoeste 0 770.5 -0.8 47
2020-01-13 12:00:00 7 12 Sudoeste 28 Sudoeste 0 771.3 0.4 51
2020-01-13 11:00:00 6 17 Sudoeste 25 Sudoeste 0 771.5 1 49
2020-01-13 10:00:00 5.9 10 Sudoeste 17 Sudoeste 0 771.3 1 34
2020-01-13 09:00:00 5.9 5 Oeste 13 Sudoeste 0 770.9 0.9 9
2020-01-13 08:00:00 4.7 5 Sudoeste 10 Norte 0 770.5 0.7 6
2020-01-13 07:00:00 4.9 5 Norte 18 Noroeste 0 770.3 0.1 5
2020-01-13 06:00:00 3.8 17 Noroeste 22 Noroeste 0 770 -0.5 12
2020-01-13 05:00:00 4.5 12 Noroeste 17 Sudoeste 0 769.8 -0.7 8
2020-01-13 04:00:00 5.3 13 Sudoeste 24 Sudoeste 0 770.2 -0.9 2
2020-01-13 03:00:00 2.6 23 Sudoeste 35 Sudoeste 0 770.5 -1 14
2020-01-13 02:00:00 4.2 28 Sur 35 Sur 0 770.5 -1.2 --
2020-01-13 01:00:00 5.5 24 Sur 36 Sur 0 771.1 -0.6 --
2020-01-13 00:00:00 5.1 30 Sur 33 Sur 0 771.5 0 9
2020-01-12 23:00:00 4.5 31 Sur 37 Sur 0 771.7 0.2 11
2020-01-12 22:00:00 3.8 33 Sur 46 Sudeste 0 771.7 -0.2 7
2020-01-12 21:00:00 4.4 37 Sudeste 42 Sudeste 0 771.5 -0.2 7
2020-01-12 20:00:00 4.4 33 Sudeste 36 Sudeste 0 771.5 0.1 8
2020-01-12 19:00:00 5.2 17 Sur 21 Sur 0 771.9 0.8 17
2020-01-12 18:00:00 7.5 13 Sur 19 Sur 0 771.7 0.5 13
2020-01-12 17:00:00 9.2 9 Sur 26 Sur 0 771.4 -0.1 13
2020-01-12 16:00:00 9.4 18 Sur 29 Sur 0 771.1 -1.2 14
2020-01-12 15:00:00 10.1 26 Sudeste 40 Sur 0 771.2 -1.7 11
2020-01-12 14:00:00 10.8 29 Sur 40 Sudeste 0 771.5 -1.5 11
2020-01-12 13:00:00 10.8 33 Sur 45 Sudeste 0 772.3 -0.6 9
2020-01-12 12:00:00 10.7 40 Sudeste 50 Sudeste 0 772.9 0.6 10
2020-01-12 11:00:00 10.1 38 Sudeste 50 Sudeste 0 773 1.2 15
2020-01-12 10:00:00 9.8 34 Sur 46 Sudeste 0 772.9 1.4 11
2020-01-12 09:00:00 7.9 36 Sur 44 Sudeste 0 772.3 1 14
2020-01-12 08:00:00 6.1 34 Sur 40 Sudeste 0 771.8 0.4 16
2020-01-12 07:00:00 5.8 33 Sudeste 37 Sudeste 0 771.5 -0.1 16
2020-01-12 06:00:00 6.1 29 Sudeste 41 Sudeste 0 771.3 -0.6 17
2020-01-12 05:00:00 5.7 23 Sur 39 Sudeste 0 771.4 -0.9 14
2020-01-12 04:00:00 4.7 31 Sudeste 38 Sudeste 0 771.6 -0.9 17
2020-01-12 03:00:00 5.3 31 Sudeste 36 Sudeste 0 771.9 -1.1 20
2020-01-12 02:00:00 4.9 27 Sudeste 31 Sudeste 0 772.3 -0.8 26
2020-01-12 01:00:00 5.1 22 Este 27 Este 0 772.5 -0.2 23
2020-01-12 00:00:00 5.4 22 Este 30 Este 0 773 0.3 23
2020-01-11 23:00:00 6.4 22 Este 38 Este 0 773.1 0.5 17
2020-01-11 22:00:00 6.7 17 Nordeste 37 Nordeste 0 772.7 0.2 9
2020-01-11 21:00:00 5.3 25 Norte 41 Nordeste 0 772.7 0.4 16
2020-01-11 20:00:00 6.4 26 Norte 41 Nordeste 0 772.6 0.3 8
2020-01-11 19:00:00 6.6 28 Norte 40 Norte 0 772.5 0.3 6
2020-01-11 18:00:00 7.6 30 Norte 39 Norte 0 772.3 -0.1 8
2020-01-11 17:00:00 8.9 28 Norte 38 Norte 0 772.3 -0.6 7
2020-01-11 16:00:00 9.8 24 Norte 33 Norte 0 772.2 -1.3 12
2020-01-11 15:00:00 10.1 19 Norte 28 Norte 0 772.4 -2 13
2020-01-11 14:00:00 9.7 14 Norte 24 Nordeste 0 772.9 -1.8 15
2020-01-11 13:00:00 10.1 13 Norte 21 Nordeste 0 773.5 -1 16
2020-01-11 12:00:00 9.4 10 Norte 21 Noroeste 0 774.4 0.3 14
2020-01-11 11:00:00 8.5 16 Norte 23 Noroeste 0 774.7 1.1 11
2020-01-11 10:00:00 7 20 Norte 22 Norte 0 774.5 0.9 11
2020-01-11 09:00:00 5.6 22 Norte 31 Noroeste 0 774.1 0.7 8
2020-01-11 08:00:00 4.7 30 Norte 42 Norte 0 773.6 -0.3 8
2020-01-11 07:00:00 4.8 35 Noroeste 46 Norte 0 773.6 -0.9 9
2020-01-11 06:00:00 3.9 32 Noroeste 40 Noroeste 0 773.4 -1.3 13
2020-01-11 05:00:00 6.2 28 Norte 37 Norte 0 773.9 -1 6
2020-01-11 04:00:00 6 22 Norte 30 Norte 0 774.5 -0.7 6
2020-01-11 03:00:00 6.6 25 Norte 28 Nordeste 0 774.7 -1 5
2020-01-11 02:00:00 7.2 15 Nordeste 21 Nordeste 0 774.9 -1.1 4
2020-01-11 01:00:00 7 15 Este 21 Este 0 775.2 -0.8 5
2020-01-11 00:00:00 6.5 15 Este 19 Sudeste 0 775.7 -0.2 5
2020-01-10 23:00:00 6.8 18 Sudeste 30 Sudeste 0 776 0.3 6
2020-01-10 22:00:00 6.8 23 Sudeste 32 Sudeste 0 776 0.6 9
2020-01-10 21:00:00 6.8 28 Sudeste 32 Sudeste 0 775.9 1.1 12
2020-01-10 20:00:00 5.6 21 Sudeste 31 Este 0 775.7 1 10
2020-01-10 19:00:00 5.7 23 Este 30 Este 0 775.4 0.8 11
2020-01-10 18:00:00 6.4 18 Este 28 Este 0 774.8 0.4 15
2020-01-10 17:00:00 7.5 13 Este 28 Este 0 774.7 -0.1 30
2020-01-10 16:00:00 7.5 17 Este 32 Este 0 774.6 -0.7 44
2020-01-10 15:00:00 7.7 21 Este 42 Este 0 774.4 -1.5 61
2020-01-10 14:00:00 8.4 25 Este 43 Este 0 774.8 -1.4 61
2020-01-10 13:00:00 8.9 23 Este 42 Sudeste 0 775.3 -0.6 58
2020-01-10 12:00:00 8.2 22 Sudeste 44 Sudeste 0 775.9 0.5 63
2020-01-10 11:00:00 7.7 33 Sudeste 49 Este 0 776.2 1.2 48
2020-01-10 10:00:00 7.6 30 Este 45 Este 0 775.9 1.1 40
2020-01-10 09:00:00 6.4 31 Este 50 Este 0 775.4 1 31
2020-01-10 08:00:00 4.9 32 Este 49 Este 0 775 0.4 35
2020-01-10 07:00:00 5 23 Nordeste 46 Este 0 774.8 0.2 12
2020-01-10 06:00:00 4.2 28 Este 43 Este 0 774.4 -0.5 11
2020-01-10 05:00:00 3.9 31 Este 45 Este 0 774.6 -0.4 14
2020-01-10 04:00:00 4.1 30 Este 49 Este 0 774.6 -0.6 12
2020-01-10 03:00:00 4 30 Este 50 Este 0 774.9 -0.5 13
2020-01-10 02:00:00 4 24 Nordeste 45 Nordeste 0 775 -0.6 13
2020-01-10 01:00:00 4.4 29 Nordeste 47 Este 0 775.2 -0.2 10
2020-01-10 00:00:00 3.7 24 Nordeste 55 Nordeste 0 775.4 0.2 16
2020-01-09 23:00:00 3.9 28 Nordeste 51 Este 0 775.6 0.6 15
2020-01-09 22:00:00 3.2 23 Nordeste 49 Nordeste 0 775.4 0.8 21
2020-01-09 21:00:00 3.5 32 Este 53 Este 0 775.2 0.8 20
2020-01-09 20:00:00 3.3 16 Nordeste 35 Nordeste 0 775 0.6 17
2020-01-09 19:00:00 3.4 22 Nordeste 39 Nordeste 0 774.6 0.5 18
2020-01-09 18:00:00 4 16 Nordeste 34 Este 0 774.4 0.3 16
2020-01-09 17:00:00 5.5 22 Nordeste 40 Nordeste 0 774.4 0.2 15
2020-01-09 16:00:00 6.7 21 Nordeste 40 Nordeste 0 774.1 -0.6 15
2020-01-09 15:00:00 6.7 24 Nordeste 43 Este 0 774.1 -1.1 14
2020-01-09 14:00:00 6.9 17 Nordeste 31 Nordeste 0 774.2 -0.9 25
2020-01-09 13:00:00 6.3 16 Norte 35 Este 0 774.7 0.1 60
2020-01-09 12:00:00 7.8 24 Este 36 Este 0 775.2 1.3 22
2020-01-09 11:00:00 5.6 15 Nordeste 44 Nordeste 0 775.1 1.6 56
2020-01-09 10:00:00 6.2 28 Este 48 Este 0 774.6 1.4 18
2020-01-09 09:00:00 5.1 33 Este 49 Este 0 773.9 1.1 17
2020-01-09 08:00:00 3.8 35 Este 48 Este 0 773.5 0.8 11
2020-01-09 07:00:00 3.6 33 Este 51 Nordeste 0 773.2 0.2 10
2020-01-09 06:00:00 3.5 34 Este 47 Este 0 772.8 -0.4 13
2020-01-09 05:00:00 2.5 31 Este 46 Este 0 772.7 -0.5 14
2020-01-09 04:00:00 1.8 29 Este 44 Este 0 773 -0.4 16
2020-01-09 03:00:00 2.2 34 Este 49 Este 0 773.2 -0.5 12
2020-01-09 02:00:00 3.3 32 Este 44 Este 0 773.2 -0.6 6
2020-01-09 01:00:00 2.9 31 Nordeste 40 Nordeste 0 773.4 -0.2 10
2020-01-09 00:00:00 2.6 24 Nordeste 40 Este 0 773.7 0.3 14
2020-01-08 23:00:00 0.2 12 Nordeste 30 Nordeste 0 773.8 0.5 24
2020-01-08 22:00:00 -1.2 16 Norte 32 Nordeste 0 773.6 0.9 39
2020-01-08 21:00:00 -1.3 21 Norte 30 Norte 0 773.4 0.8 51
2020-01-08 20:00:00 -0.4 24 Nordeste 42 Norte 0 773.3 0.8 31
2020-01-08 19:00:00 -1.1 29 Norte 42 Norte 0 772.7 0.4 48
2020-01-08 18:00:00 -0.3 19 Norte 33 Norte 0 772.6 0.2 60
2020-01-08 17:00:00 1.2 23 Norte 39 Norte 0 772.5 -0.1 53
2020-01-08 16:00:00 1.9 27 Norte 39 Norte 0 772.3 -0.9 88
2020-01-08 15:00:00 3.4 15 Norte 34 Norte 0 772.4 -1.3 77
2020-01-08 14:00:00 1.4 17 Nordeste 33 Este 0 772.6 -1.1 94
2020-01-08 13:00:00 2.8 17 Este 40 Este 0 773.2 0 73
2020-01-08 12:00:00 0.3 17 Este 47 Este 0 773.7 1.1 97
2020-01-08 11:00:00 -0.1 26 Sudeste 47 Este 0 773.7 1.4 99
2020-01-08 10:00:00 -0.1 31 Este 41 Este 0 773.2 1.4 97
2020-01-08 09:00:00 -0.9 25 Este 46 Este 0 772.6 1 99
2020-01-08 08:00:00 -0.3 22 Este 48 Este 0 772.3 0.6 98
2020-01-08 07:00:00 -1.1 33 Este 47 Este 0 771.8 -0.2 89
2020-01-08 06:00:00 -1.5 24 Este 33 Nordeste 0 771.6 -0.5 89
2020-01-08 05:00:00 -2.8 17 Nordeste 26 Nordeste 0 771.7 -0.4 83
2020-01-08 04:00:00 -2.1 12 Nordeste 32 Nordeste 0 772 -0.3 73
2020-01-08 03:00:00 -2 23 Este 33 Este 0 772.1 -0.5 63
2020-01-08 02:00:00 -2.2 23 Este 37 Este 0 772.1 -0.8 63
2020-01-08 01:00:00 -2 25 Este 42 Este 0 772.3 -0.5 59
2020-01-08 00:00:00 -1.6 24 Este 46 Nordeste 0 772.6 0 58
2020-01-07 23:00:00 -1.2 29 Este 46 Este 0 772.9 0.5 48
2020-01-07 22:00:00 -1 29 Este 45 Este 0 772.8 0.8 47
2020-01-07 21:00:00 -1 32 Este 44 Este 0 772.6 0.9 49
2020-01-07 20:00:00 -1 26 Este 37 Sudeste 0 772.4 1 44
2020-01-07 19:00:00 -0.4 27 Sudeste 40 Este 0 772 0.7 41
2020-01-07 18:00:00 0.8 30 Este 38 Este 0 771.7 0.5 50
2020-01-07 17:00:00 1.1 22 Sudeste 35 Sudeste 0 771.4 -0.2 50
2020-01-07 16:00:00 1.4 31 Sur 37 Sur 0 771.3 -0.4 82
2020-01-07 15:00:00 0.5 24 Sur 45 Sudeste 0 771.2 -0.8 100
2020-01-07 14:00:00 0.3 27 Sur 60 Sudeste 0 771.6 -0.9 100
2020-01-07 13:00:00 0.1 31 Sur 59 Sudeste 0 771.7 -0.4 100
2020-01-07 12:00:00 -0.1 34 Sudeste 55 Sudeste 0 772 1 100
2020-01-07 11:00:00 0.2 36 Sudeste 55 Sudeste 0.2 772.5 1.9 99
2020-01-07 10:00:00 -0.2 37 Sudeste 66 Sudeste 0.2 772.1 1.8 100
2020-01-07 09:00:00 -0.2 42 Sudeste 72 Sudeste 0 771 1.4 100
2020-01-07 08:00:00 -0.5 41 Sudeste 62 Este 0 770.6 1.2 100
2020-01-07 07:00:00 -1 36 Este 53 Este 0 770.3 1.1 99
2020-01-07 06:00:00 -1.7 39 Este 49 Este 0 769.6 0 99
2020-01-07 05:00:00 -2.4 41 Norte 62 Norte 0 769.4 -0.7 98
2020-01-07 04:00:00 -1.9 53 Norte 64 Norte 0 769.2 -0.6 100
2020-01-07 03:00:00 -0.9 46 Norte 70 Norte 0 769.6 -0.9 100
2020-01-07 02:00:00 -0.6 45 Norte 76 Norte 0 770.1 -1.2 100
2020-01-07 01:00:00 -0.2 57 Norte 70 Norte 0 769.8 -1.8 100
2020-01-07 00:00:00 -1.2 47 Norte 55 Norte 0 770.5 -0.1 100
2020-01-06 23:00:00 -0.3 45 Norte 61 Norte 0 771.3 0.3 100
2020-01-06 22:00:00 -0.8 42 Norte 69 Norte 0 771.6 0.6 98
2020-01-06 21:00:00 0.5 54 Noroeste 68 Norte 0 770.6 -0.3 99
2020-01-06 20:00:00 -0.8 44 Norte 73 Norte 0 771 0.3 97
2020-01-06 19:00:00 -0.8 48 Norte 68 Norte 0 771 0.6 86
2020-01-06 18:00:00 -0.8 43 Norte 58 Norte 0 770.9 0 91
2020-01-06 17:00:00 0.2 43 Norte 60 Norte 0 770.7 -1.1 84
2020-01-06 16:00:00 1.3 42 Norte 51 Norte 0 770.4 -2.2 83
2020-01-06 15:00:00 3.8 36 Norte 54 Norte 0 770.9 -2.3 58
2020-01-06 14:00:00 4.9 23 Norte 39 Norte 0 771.8 -1.7 32
2020-01-06 13:00:00 5.7 13 Nordeste 40 Norte 0 772.6 -0.5 22
2020-01-06 12:00:00 5 21 Nordeste 51 Norte 0 773.2 0.6 21
2020-01-06 11:00:00 2.7 38 Norte 53 Norte 0 773.5 1.2 34
2020-01-06 10:00:00 0.9 35 Norte 54 Norte 0 773.1 0.9 90
2020-01-06 09:00:00 2.4 38 Norte 51 Nordeste 0 772.6 0.8 50